Time;durP1;ratioP1;P1;durP2;ratioP2;P2;SDS_P1;SDS_P2;PMS_P1;PMS_P2;Temp;Humidity;BMP_temperature;BMP_pressure;BME280_temperature;BME280_humidity;BME280_pressure;Samples;Min_cycle;Max_cycle;Signal;HPM_P1;HPM_P2
2022/03/26 00:02:00;;;;;;;;;15.00;14.00;;;;;22.26;38.08;101649.58;110287;1265;19234;-53
2022/03/26 00:04:28;;;;;;;;;16.67;14.67;;;;;22.26;38.34;101647.25;110206;1265;21040;-50
2022/03/26 00:06:55;;;;;;;;;17.00;14.00;;;;;22.26;38.24;101645.74;110160;1265;19013;-51
2022/03/26 00:09:22;;;;;;;;;18.67;17.00;;;;;22.26;38.18;101641.96;110265;1264;18757;-50
2022/03/26 00:11:49;;;;;;;;;17.67;16.33;;;;;22.26;38.25;101637.80;110171;1265;19613;-50
2022/03/26 00:14:17;;;;;;;;;17.00;14.00;;;;;22.27;38.31;101638.78;110200;1264;18701;-51
2022/03/26 00:16:44;;;;;;;;;14.33;14.00;;;;;22.27;38.20;101642.41;110156;1265;22567;-52
2022/03/26 00:19:11;;;;;;;;;16.33;14.67;;;;;22.26;38.28;101637.38;110084;1265;19623;-49
2022/03/26 00:21:38;;;;;;;;;17.33;14.33;;;;;22.25;38.22;101633.32;110191;1265;19095;-49
2022/03/26 00:24:06;;;;;;;;;11.67;11.00;;;;;22.25;38.22;101626.40;110179;1264;20561;-47
2022/03/26 00:26:33;;;;;;;;;17.00;15.00;;;;;22.26;38.20;101624.65;110087;1265;19584;-49
2022/03/26 00:29:01;;;;;;;;;14.00;13.00;;;;;22.25;38.03;101620.52;110215;1264;18723;-49
2022/03/26 00:31:29;;;;;;;;;17.33;14.00;;;;;22.25;38.12;101615.06;110230;1264;18981;-50
2022/03/26 00:33:57;;;;;;;;;14.00;13.00;;;;;22.24;38.15;101611.06;110179;1264;19334;-50
2022/03/26 00:36:24;;;;;;;;;13.33;13.33;;;;;22.24;38.30;101612.46;110122;1265;18941;-49
2022/03/26 00:38:51;;;;;;;;;15.00;13.00;;;;;22.24;38.11;101612.52;110220;1265;18951;-49
2022/03/26 00:41:18;;;;;;;;;13.00;11.00;;;;;22.24;38.05;101603.41;110157;1265;19612;-54
2022/03/26 00:43:46;;;;;;;;;18.00;14.67;;;;;22.24;37.95;101600.16;110222;1264;19063;-50
2022/03/26 00:46:13;;;;;;;;;14.33;12.33;;;;;22.22;38.09;101590.45;110224;1264;19114;-52
2022/03/26 00:48:40;;;;;;;;;11.33;11.33;;;;;22.23;38.15;101586.91;110166;1264;22726;-48
2022/03/26 00:51:07;;;;;;;;;13.00;13.00;;;;;22.24;38.04;101582.14;110240;1264;18827;-50
2022/03/26 00:53:34;;;;;;;;;16.00;14.00;;;;;22.23;38.07;101584.37;110185;1265;19134;-51
2022/03/26 00:56:02;;;;;;;;;13.00;13.00;;;;;22.23;38.10;101575.83;110105;1264;19651;-51
2022/03/26 00:58:29;;;;;;;;;10.00;10.00;;;;;22.23;37.83;101575.98;110200;1264;22800;-50
2022/03/26 01:00:56;;;;;;;;;15.00;14.00;;;;;22.22;37.94;101572.48;110169;1264;19218;-49
2022/03/26 01:03:23;;;;;;;;;13.33;12.33;;;;;22.23;38.10;101570.05;110122;1265;20893;-48
2022/03/26 01:05:50;;;;;;;;;16.00;14.33;;;;;22.23;38.01;101569.85;110178;1265;19854;-49
2022/03/26 01:08:18;;;;;;;;;15.00;13.33;;;;;22.21;37.97;101564.89;110213;1264;19046;-49
2022/03/26 01:10:45;;;;;;;;;14.33;13.00;;;;;22.22;37.83;101567.17;110185;1264;19508;-52
2022/03/26 01:13:12;;;;;;;;;14.50;12.50;;;;;22.22;37.79;101562.05;110211;1265;18816;-51
2022/03/26 01:15:39;;;;;;;;;15.00;13.67;;;;;22.22;38.00;101560.11;110187;1265;18925;-46
2022/03/26 01:18:07;;;;;;;;;14.50;14.00;;;;;22.21;37.95;101563.28;110220;1264;21046;-48
2022/03/26 01:20:34;;;;;;;;;14.00;14.00;;;;;22.21;38.16;101560.18;110108;1265;19678;-49
2022/03/26 01:23:01;;;;;;;;;14.33;13.67;;;;;22.21;37.97;101555.06;110213;1264;22671;-50
2022/03/26 01:25:29;;;;;;;;;12.67;12.00;;;;;22.21;38.03;101551.23;110091;1264;19482;-48
2022/03/26 01:27:56;;;;;;;;;14.00;12.33;;;;;22.21;37.99;101551.61;110121;1264;22901;-50
2022/03/26 01:30:24;;;;;;;;;13.00;13.00;;;;;22.22;38.03;101552.02;110222;1265;19148;-50
2022/03/26 01:32:52;;;;;;;;;14.33;11.67;;;;;22.21;37.89;101548.54;110137;1265;19497;-49
2022/03/26 01:35:20;;;;;;;;;11.33;11.00;;;;;22.21;37.85;101543.63;110110;1265;22059;-48
2022/03/26 01:37:47;;;;;;;;;11.67;11.67;;;;;22.21;38.05;101540.90;110209;1264;18822;-51
2022/03/26 01:40:14;;;;;;;;;12.33;11.67;;;;;22.19;37.86;101538.73;110210;1265;23178;-50
2022/03/26 01:42:41;;;;;;;;;17.00;14.00;;;;;22.19;37.94;101534.55;110199;1264;19367;-50
2022/03/26 01:45:09;;;;;;;;;14.33;13.00;;;;;22.20;38.00;101539.06;110219;1265;22274;-49
2022/03/26 01:47:36;;;;;;;;;13.67;13.00;;;;;22.20;37.87;101538.14;110115;1267;19986;-49
2022/03/26 01:50:03;;;;;;;;;15.00;14.00;;;;;22.20;37.79;101537.59;110187;1265;18897;-49
2022/03/26 01:52:30;;;;;;;;;14.33;13.33;;;;;22.19;37.92;101528.00;110254;1264;18812;-49
2022/03/26 01:54:57;;;;;;;;;11.67;11.00;;;;;22.19;38.01;101527.18;110219;1264;19765;-49
2022/03/26 01:57:25;;;;;;;;;14.00;11.00;;;;;22.18;37.97;101522.80;110098;1265;19065;-49
2022/03/26 01:59:52;;;;;;;;;14.67;14.00;;;;;22.18;37.97;101516.66;110261;1264;18808;-52
2022/03/26 02:02:20;;;;;;;;;13.00;13.00;;;;;22.17;37.82;101510.93;110096;1264;19693;-50
2022/03/26 02:04:47;;;;;;;;;11.00;11.00;;;;;22.16;37.95;101508.50;110193;1264;20751;-50
2022/03/26 02:07:14;;;;;;;;;17.00;13.00;;;;;22.18;37.83;101506.14;110114;1265;22765;-50
2022/03/26 02:09:43;;;;;;;;;14.67;13.67;;;;;22.18;37.97;101502.64;110104;1264;19491;-50
2022/03/26 02:12:10;;;;;;;;;13.00;13.00;;;;;22.18;37.88;101503.20;110132;1265;23240;-53
2022/03/26 02:14:37;;;;;;;;;13.00;12.00;;;;;22.18;37.92;101508.13;110189;1264;19006;-50
2022/03/26 02:17:04;;;;;;;;;10.00;10.00;;;;;22.18;37.87;101502.64;110229;1265;22698;-50
2022/03/26 02:19:32;;;;;;;;;13.00;11.00;;;;;22.16;38.03;101497.27;110226;1264;19322;-50
2022/03/26 02:21:59;;;;;;;;;12.00;10.00;;;;;22.16;37.94;101502.89;110174;1265;22970;-50
2022/03/26 02:24:26;;;;;;;;;16.00;13.67;;;;;22.17;38.03;101506.46;110210;1264;19536;-50
2022/03/26 02:26:54;;;;;;;;;14.00;11.67;;;;;22.17;37.73;101504.26;110126;1264;22248;-47
2022/03/26 02:29:21;;;;;;;;;13.00;11.00;;;;;22.16;38.02;101498.29;110213;1265;19196;-49
2022/03/26 02:31:48;;;;;;;;;14.00;13.00;;;;;22.17;37.97;101490.41;110180;1265;21106;-51
2022/03/26 02:34:15;;;;;;;;;14.00;13.00;;;;;22.15;37.84;101488.25;110198;1264;19033;-50
2022/03/26 02:36:42;;;;;;;;;10.33;10.00;;;;;22.16;37.93;101481.80;110253;1264;18883;-51
2022/03/26 02:39:10;;;;;;;;;13.00;13.00;;;;;22.17;37.89;101479.85;110177;1265;19813;-51
2022/03/26 02:41:37;;;;;;;;;10.50;10.50;;;;;22.16;38.03;101474.13;110185;1265;18854;-55
2022/03/26 02:44:04;;;;;;;;;14.00;13.33;;;;;22.15;38.03;101471.16;110174;1264;18877;-51
2022/03/26 02:46:31;;;;;;;;;13.00;12.00;;;;;22.14;37.99;101468.12;110198;1264;19527;-51
2022/03/26 02:48:59;;;;;;;;;11.67;11.33;;;;;22.15;38.03;101472.75;110194;1264;18873;-49
2022/03/26 02:51:26;;;;;;;;;14.50;13.50;;;;;22.14;37.92;101467.20;110204;1265;18874;-50
2022/03/26 02:53:53;;;;;;;;;10.00;10.00;;;;;22.14;38.07;101467.57;110187;1265;19701;-50
2022/03/26 02:56:21;;;;;;;;;10.67;10.67;;;;;22.14;38.09;101467.23;110225;1265;22239;-49
2022/03/26 02:58:48;;;;;;;;;11.00;11.00;;;;;22.13;37.91;101464.40;110191;1264;20912;-49
2022/03/26 03:01:15;;;;;;;;;11.67;11.67;;;;;22.14;37.87;101463.71;110228;1265;22583;-50
2022/03/26 03:03:42;;;;;;;;;13.50;11.00;;;;;22.12;38.11;101460.62;110152;1265;19828;-51
2022/03/26 03:06:10;;;;;;;;;14.00;11.50;;;;;22.13;37.85;101464.23;110252;1264;19089;-50
2022/03/26 03:08:37;;;;;;;;;12.00;10.33;;;;;22.13;37.93;101457.51;110145;1265;19681;-53
2022/03/26 03:11:04;;;;;;;;;12.67;11.67;;;;;22.13;37.86;101460.89;110187;1264;20046;-51
2022/03/26 03:13:31;;;;;;;;;10.67;10.00;;;;;22.12;37.69;101459.89;110158;1265;22530;-49
2022/03/26 03:15:59;;;;;;;;;17.33;13.67;;;;;22.12;37.93;101461.01;110202;1264;21315;-49
2022/03/26 03:18:26;;;;;;;;;10.67;10.00;;;;;22.11;37.84;101461.86;110189;1265;18714;-50
2022/03/26 03:20:53;;;;;;;;;14.00;13.67;;;;;22.12;37.76;101462.68;110172;1265;18935;-49
2022/03/26 03:23:20;;;;;;;;;10.00;10.00;;;;;22.12;37.93;101460.70;110220;1265;19571;-49
2022/03/26 03:25:48;;;;;;;;;10.00;10.00;;;;;22.12;37.71;101462.84;110137;1264;18787;-52
2022/03/26 03:28:15;;;;;;;;;11.67;10.00;;;;;22.11;37.89;101456.77;110159;1265;19076;-49
2022/03/26 03:30:42;;;;;;;;;12.33;10.33;;;;;22.11;37.96;101454.42;110166;1265;20822;-51
2022/03/26 03:33:10;;;;;;;;;12.67;11.33;;;;;22.10;37.89;101453.21;110281;1265;19070;-51
2022/03/26 03:35:37;;;;;;;;;11.33;11.00;;;;;22.12;37.75;101449.79;110173;1264;19056;-53
2022/03/26 03:38:04;;;;;;;;;12.00;10.67;;;;;22.11;37.71;101440.95;110215;1264;23095;-50
2022/03/26 03:40:31;;;;;;;;;14.67;14.00;;;;;22.11;37.78;101439.61;110168;1264;18875;-50
2022/03/26 03:42:58;;;;;;;;;13.00;13.00;;;;;22.12;37.83;101440.34;110194;1265;22261;-48
2022/03/26 03:45:26;;;;;;;;;10.00;9.33;;;;;22.12;37.99;101433.89;110204;1265;19883;-50
2022/03/26 03:47:53;;;;;;;;;12.50;12.50;;;;;22.11;37.77;101429.30;110176;1265;19417;-50
2022/03/26 03:50:20;;;;;;;;;11.00;10.50;;;;;22.10;37.92;101421.17;110222;1265;20372;-49
2022/03/26 03:52:48;;;;;;;;;13.50;11.00;;;;;22.11;37.77;101420.91;110251;1264;19516;-52
2022/03/26 03:55:15;;;;;;;;;15.33;10.33;;;;;22.10;37.87;101424.48;110222;1264;18723;-50
2022/03/26 03:57:43;;;;;;;;;13.33;11.33;;;;;22.09;37.86;101417.08;110180;1264;18931;-50
2022/03/26 04:00:10;;;;;;;;;13.00;13.00;;;;;22.10;37.89;101416.67;110185;1265;19595;-50
2022/03/26 04:02:37;;;;;;;;;11.00;11.00;;;;;22.09;37.73;101408.33;110202;1265;18791;-51
2022/03/26 04:05:05;;;;;;;;;12.67;12.00;;;;;22.09;37.96;101406.55;110198;1265;20423;-50
2022/03/26 04:07:32;;;;;;;;;13.00;12.33;;;;;22.09;37.77;101404.36;110225;1264;19762;-50
2022/03/26 04:09:59;;;;;;;;;11.00;10.33;;;;;22.09;38.04;101405.13;110154;1264;18993;-50
2022/03/26 04:12:26;;;;;;;;;14.00;13.67;;;;;22.10;37.79;101407.52;110052;1265;18842;-50
2022/03/26 04:14:54;;;;;;;;;13.00;11.33;;;;;22.10;37.80;101405.20;110169;1265;22226;-49
2022/03/26 04:17:21;;;;;;;;;10.00;10.00;;;;;22.09;37.93;101402.58;110296;1265;18716;-48
2022/03/26 04:19:48;;;;;;;;;13.00;11.50;;;;;22.09;37.89;101402.61;110197;1265;19016;-50
2022/03/26 04:22:15;;;;;;;;;12.33;11.33;;;;;22.10;37.83;101401.67;110182;1265;19672;-48
2022/03/26 04:24:42;;;;;;;;;10.00;9.33;;;;;22.10;37.62;101396.10;110213;1265;18712;-51
2022/03/26 04:27:10;;;;;;;;;13.00;10.67;;;;;22.09;37.91;101393.44;110122;1267;22370;-52
2022/03/26 04:29:37;;;;;;;;;13.00;13.00;;;;;22.08;37.75;101396.45;110171;1265;19464;-48
2022/03/26 04:32:04;;;;;;;;;13.33;13.33;;;;;22.08;37.68;101395.20;110219;1265;19031;-50
2022/03/26 04:34:32;;;;;;;;;12.33;11.00;;;;;22.08;37.83;101393.17;110180;1264;18955;-49
2022/03/26 04:36:59;;;;;;;;;14.33;11.33;;;;;22.09;37.77;101389.77;110178;1265;22690;-49
2022/03/26 04:39:26;;;;;;;;;11.00;11.00;;;;;22.08;37.69;101389.33;110167;1264;18701;-49
2022/03/26 04:41:53;;;;;;;;;9.67;9.67;;;;;22.09;37.79;101384.75;110222;1264;18970;-52
2022/03/26 04:44:21;;;;;;;;;13.00;11.33;;;;;22.09;37.85;101380.73;110180;1265;20394;-49
2022/03/26 04:46:48;;;;;;;;;12.67;12.00;;;;;22.08;37.77;101376.98;110183;1264;22678;-48
2022/03/26 04:49:15;;;;;;;;;10.00;10.00;;;;;22.07;37.83;101375.30;110184;1264;18965;-51
2022/03/26 04:51:42;;;;;;;;;11.00;11.00;;;;;22.07;37.74;101377.79;110209;1264;19844;-51
2022/03/26 04:54:09;;;;;;;;;12.67;10.67;;;;;22.08;37.92;101378.98;110186;1265;18661;-49
2022/03/26 04:56:37;;;;;;;;;10.00;10.00;;;;;22.08;37.92;101378.84;110181;1265;18836;-51
2022/03/26 04:59:04;;;;;;;;;13.67;11.00;;;;;22.08;37.95;101380.31;110194;1264;19862;-53
2022/03/26 05:01:31;;;;;;;;;13.67;11.00;;;;;22.08;37.94;101380.98;110128;1264;22895;-51
2022/03/26 05:03:59;;;;;;;;;17.00;13.00;;;;;22.09;37.79;101383.80;110178;1264;18978;-49
2022/03/26 05:06:26;;;;;;;;;12.33;12.00;;;;;22.09;37.82;101379.12;110185;1265;22276;-52
2022/03/26 05:08:53;;;;;;;;;11.67;10.33;;;;;22.08;37.97;101378.04;110148;1265;18863;-49
2022/03/26 05:11:20;;;;;;;;;14.00;10.67;;;;;22.09;37.91;101383.83;110245;1265;20296;-50
2022/03/26 05:13:47;;;;;;;;;10.00;10.00;;;;;22.09;37.70;101382.91;110188;1265;19647;-50
2022/03/26 05:16:15;;;;;;;;;13.00;11.00;;;;;22.12;37.87;101379.01;110151;1264;22233;-50
2022/03/26 05:18:42;;;;;;;;;11.00;10.00;;;;;22.11;37.88;101372.34;110149;1265;18948;-50
2022/03/26 05:21:09;;;;;;;;;14.33;11.33;;;;;22.12;37.91;101373.44;110216;1264;19568;-50
2022/03/26 05:23:37;;;;;;;;;13.50;13.50;;;;;22.13;38.22;101372.48;110180;1264;22952;-52
2022/03/26 05:26:04;;;;;;;;;11.00;10.00;;;;;22.13;38.06;101370.40;110239;1264;18870;-48
2022/03/26 05:28:31;;;;;;;;;10.67;8.67;;;;;22.14;38.09;101368.23;110204;1265;21663;-49
2022/03/26 05:30:58;;;;;;;;;11.00;10.67;;;;;22.16;38.09;101357.77;110244;1264;20129;-49
2022/03/26 05:33:26;;;;;;;;;13.50;12.50;;;;;22.17;38.12;101352.59;110148;1265;19113;-49
2022/03/26 05:35:53;;;;;;;;;15.00;14.00;;;;;22.16;38.21;101349.24;110196;1264;30730;-49
2022/03/26 05:38:20;;;;;;;;;13.00;11.00;;;;;22.15;37.94;101351.70;110251;1264;19524;-50
2022/03/26 05:40:47;;;;;;;;;10.50;10.50;;;;;22.16;38.17;101353.23;110225;1265;32867;-50
2022/03/26 05:43:14;;;;;;;;;13.67;12.33;;;;;22.18;38.24;101356.72;110208;1264;19462;-51
2022/03/26 05:45:42;;;;;;;;;11.00;11.00;;;;;22.16;38.49;101349.75;110155;1265;19148;-50
2022/03/26 05:48:09;;;;;;;;;10.00;10.00;;;;;22.23;38.81;101354.61;110236;1264;18786;-51
2022/03/26 05:50:36;;;;;;;;;11.00;11.00;;;;;22.29;38.93;101355.99;110247;1264;19709;-50
2022/03/26 05:53:03;;;;;;;;;10.33;10.00;;;;;22.29;39.04;101356.81;110169;1265;18852;-51
2022/03/26 05:55:30;;;;;;;;;13.00;11.00;;;;;22.32;39.18;101355.23;110275;1264;19206;-51
2022/03/26 05:57:58;;;;;;;;;13.00;11.00;;;;;22.34;39.20;101355.89;110200;1264;19653;-51
2022/03/26 06:00:25;;;;;;;;;23.33;21.00;;;;;22.31;39.27;101362.65;110223;1264;18925;-52
2022/03/26 06:02:52;;;;;;;;;17.00;15.00;;;;;22.27;39.01;101359.40;110227;1264;19069;-49
2022/03/26 06:05:20;;;;;;;;;22.00;21.67;;;;;22.24;38.41;101357.85;110188;1265;19539;-50
2022/03/26 06:07:47;;;;;;;;;22.00;19.67;;;;;22.21;38.42;101359.61;110173;1264;22241;-49
2022/03/26 06:10:14;;;;;;;;;25.00;23.00;;;;;22.16;37.80;101355.46;110193;1265;18816;-50
2022/03/26 06:12:41;;;;;;;;;25.67;22.33;;;;;22.10;37.43;101347.29;110170;1265;19530;-49
2022/03/26 06:15:09;;;;;;;;;24.50;19.50;;;;;22.12;37.63;101351.50;110171;1265;18878;-51
2022/03/26 06:17:37;;;;;;;;;32.00;26.33;;;;;22.11;36.95;101352.65;110291;1265;18964;-51
2022/03/26 06:20:04;;;;;;;;;31.33;25.67;;;;;22.12;36.79;101356.35;110229;1264;32983;-49
2022/03/26 06:22:31;;;;;;;;;29.67;27.33;;;;;22.12;36.65;101356.21;110193;1264;22743;-50
2022/03/26 06:24:59;;;;;;;;;27.00;25.67;;;;;22.05;36.00;101356.90;110249;1264;18994;-50
2022/03/26 06:27:26;;;;;;;;;31.50;27.50;;;;;22.06;36.21;101357.02;110164;1265;20259;-52
2022/03/26 06:29:53;;;;;;;;;34.50;31.00;;;;;22.09;35.96;101353.74;110143;1264;18888;-50
2022/03/26 06:32:20;;;;;;;;;35.33;30.00;;;;;22.06;35.68;101357.96;110070;1264;20151;-49
2022/03/26 06:34:48;;;;;;;;;33.67;29.33;;;;;22.02;35.78;101354.78;110099;1264;19753;-51
2022/03/26 06:37:15;;;;;;;;;30.67;26.67;;;;;22.00;35.48;101353.17;110166;1265;18853;-50
2022/03/26 06:39:42;;;;;;;;;35.67;31.00;;;;;21.96;35.48;101354.85;110149;1265;20450;-50
2022/03/26 06:42:10;;;;;;;;;33.00;30.33;;;;;21.86;35.56;101358.83;110205;1265;19384;-52
2022/03/26 06:44:37;;;;;;;;;31.67;27.00;;;;;21.84;35.72;101363.13;110229;1264;18804;-52
2022/03/26 06:47:04;;;;;;;;;30.33;25.00;;;;;21.83;35.63;101370.87;110231;1264;19013;-53
2022/03/26 06:49:32;;;;;;;;;31.00;27.50;;;;;21.82;36.12;101377.92;110238;1264;21058;-50
2022/03/26 06:52:00;;;;;;;;;30.33;27.00;;;;;21.82;36.02;101383.01;110176;1265;18677;-52
2022/03/26 06:54:27;;;;;;;;;27.00;25.67;;;;;21.80;36.25;101391.05;110185;1265;18926;-51
2022/03/26 06:56:55;;;;;;;;;26.67;22.33;;;;;21.77;36.33;101384.80;110242;1264;19694;-50
2022/03/26 06:59:23;;;;;;;;;28.00;21.67;;;;;21.78;36.32;101393.30;110181;1264;19300;-50
2022/03/26 07:01:50;;;;;;;;;24.33;21.67;;;;;21.79;36.38;101386.83;110234;1264;19009;-52
2022/03/26 07:04:17;;;;;;;;;28.50;24.50;;;;;21.84;36.30;101392.59;110173;1264;21490;-50
2022/03/26 07:06:45;;;;;;;;;22.33;21.33;;;;;21.83;36.26;101389.02;110164;1264;18880;-55
2022/03/26 07:09:12;;;;;;;;;23.00;22.00;;;;;21.84;36.39;101385.54;110145;1265;19399;-50
2022/03/26 07:11:39;;;;;;;;;21.33;19.33;;;;;21.83;36.58;101378.00;110239;1264;23520;-51
2022/03/26 07:14:06;;;;;;;;;22.00;21.00;;;;;21.85;36.60;101384.65;110192;1264;18873;-50
2022/03/26 07:16:34;;;;;;;;;22.33;21.00;;;;;21.82;36.38;101386.48;110131;1264;20310;-50
2022/03/26 07:19:01;;;;;;;;;29.50;21.50;;;;;21.80;36.57;101384.80;110168;1265;19836;-51
2022/03/26 07:21:28;;;;;;;;;30.67;25.00;;;;;21.80;36.72;101387.58;110173;1265;18826;-50
2022/03/26 07:23:56;;;;;;;;;26.33;24.00;;;;;21.78;36.51;101383.00;110189;1264;19110;-50
2022/03/26 07:26:24;;;;;;;;;21.00;19.00;;;;;21.69;36.66;101388.58;110193;1264;19660;-50
2022/03/26 07:28:51;;;;;;;;;23.00;22.00;;;;;21.66;36.70;101389.83;110208;1265;22201;-49
2022/03/26 07:31:18;;;;;;;;;23.00;21.00;;;;;21.64;36.63;101393.13;110151;1265;19608;-51
2022/03/26 07:33:45;;;;;;;;;26.00;21.00;;;;;21.63;36.67;101387.64;110183;1264;22089;-52
2022/03/26 07:36:13;;;;;;;;;23.00;21.33;;;;;21.64;36.87;101384.81;110136;1265;21437;-54
2022/03/26 07:38:40;;;;;;;;;27.50;22.00;;;;;21.65;36.73;101383.40;110135;1266;22326;-54
2022/03/26 07:41:08;;;;;;;;;23.33;19.33;;;;;21.67;36.43;101385.16;110110;1264;21105;-52
2022/03/26 07:43:35;;;;;;;;;27.33;22.33;;;;;21.67;36.50;101388.30;110049;1265;18813;-51
2022/03/26 07:46:02;;;;;;;;;26.00;22.67;;;;;21.66;36.48;101390.55;110002;1264;20222;-51
2022/03/26 07:48:29;;;;;;;;;21.33;18.67;;;;;21.57;36.31;101391.82;110075;1265;19716;-52
2022/03/26 07:50:57;;;;;;;;;21.33;20.00;;;;;21.55;36.58;101384.95;110059;1265;22342;-49
2022/03/26 07:53:25;;;;;;;;;20.50;18.00;;;;;21.59;36.52;101394.73;109977;1265;187396;-52
2022/03/26 07:55:53;;;;;;;;;24.33;21.33;;;;;21.63;36.44;101397.33;110117;1264;19361;-54
2022/03/26 07:58:20;;;;;;;;;22.00;20.00;;;;;21.63;36.35;101395.65;110171;1264;19437;-51
2022/03/26 08:00:48;;;;;;;;;21.33;19.33;;;;;21.61;36.36;101401.89;110235;1265;22762;-52
2022/03/26 08:03:16;;;;;;;;;28.00;23.33;;;;;21.57;36.23;101402.97;110159;1265;19753;-49
2022/03/26 08:05:43;;;;;;;;;19.67;19.67;;;;;21.54;36.51;101408.70;110207;1265;18730;-49
2022/03/26 08:08:10;;;;;;;;;21.67;19.33;;;;;21.49;36.44;101402.38;110242;1265;23307;-51
2022/03/26 08:10:37;;;;;;;;;25.00;21.00;;;;;21.48;36.75;101406.53;110187;1264;19583;-51
2022/03/26 08:13:04;;;;;;;;;28.50;25.00;;;;;21.49;37.04;101409.30;110137;1265;18697;-50
2022/03/26 08:15:32;;;;;;;;;25.00;22.00;;;;;21.55;36.90;101410.30;110163;1265;22841;-53
2022/03/26 08:18:02;;;;;;;;;31.50;28.50;;;;;21.61;37.02;101414.98;110211;1264;19994;-50
2022/03/26 08:20:30;;;;;;;;;29.00;23.00;;;;;21.64;37.25;101414.29;110168;1264;18989;-50
2022/03/26 08:22:57;;;;;;;;;56.50;42.00;;;;;21.61;37.25;101426.04;110100;1264;18853;-50
2022/03/26 08:28:09;;;;;;;;;177.67;131.00;;;;;21.65;37.51;101429.67;110184;1265;18911;-52
2022/03/26 08:30:36;;;;;;;;;135.50;101.75;;;;;21.66;36.94;101424.77;110122;1265;20599;-48
2022/03/26 08:33:03;;;;;;;;;119.67;98.33;;;;;21.67;36.87;101425.24;110000;1265;19661;-49
2022/03/26 08:35:31;;;;;;;;;264.67;190.00;;;;;21.66;36.80;101421.68;110131;1265;19099;-49
2022/03/26 08:37:58;;;;;;;;;208.50;154.75;;;;;21.63;37.10;101422.56;109988;1264;22260;-51
2022/03/26 08:40:25;;;;;;;;;185.00;139.00;;;;;21.64;36.87;101424.30;110084;1265;19593;-50
2022/03/26 08:42:52;;;;;;;;;176.33;135.33;;;;;21.66;36.75;101423.15;109963;1264;19195;-51
2022/03/26 08:45:20;;;;;;;;;168.00;128.25;;;;;21.70;36.86;101431.39;110176;1264;18948;-50
2022/03/26 08:47:47;;;;;;;;;168.50;120.00;;;;;21.68;37.20;101427.33;110183;1264;19564;-53
2022/03/26 08:50:14;;;;;;;;;127.33;93.00;;;;;21.63;37.49;101424.52;110263;1264;19151;-51
2022/03/26 08:52:41;;;;;;;;;135.67;92.33;;;;;21.67;37.17;101426.13;110210;1265;22542;-50
2022/03/26 08:55:08;;;;;;;;;96.33;75.33;;;;;21.70;37.02;101432.49;110175;1264;19561;-54
2022/03/26 08:57:36;;;;;;;;;109.00;86.50;;;;;21.70;36.97;101435.20;110165;1264;19106;-51
2022/03/26 09:00:03;;;;;;;;;97.00;72.00;;;;;21.70;36.98;101435.59;110173;1265;18844;-50
2022/03/26 09:02:30;;;;;;;;;91.67;64.00;;;;;21.71;37.06;101446.10;110215;1264;19553;-51
2022/03/26 09:04:58;;;;;;;;;83.00;60.33;;;;;21.69;37.25;101448.13;110233;1265;20152;-51
2022/03/26 09:07:25;;;;;;;;;83.00;61.00;;;;;21.66;37.00;101451.83;110184;1265;19196;-48
2022/03/26 09:09:52;;;;;;;;;80.33;59.00;;;;;21.63;36.98;101455.64;110171;1265;19713;-49
2022/03/26 09:12:19;;;;;;;;;77.00;55.33;;;;;21.63;37.44;101460.08;110261;1264;18741;-49
2022/03/26 09:14:47;;;;;;;;;77.67;57.00;;;;;21.61;37.39;101465.33;110199;1265;18887;-51
2022/03/26 09:17:14;;;;;;;;;70.67;52.00;;;;;21.62;37.40;101468.66;110178;1265;20406;-53
2022/03/26 09:19:41;;;;;;;;;68.33;48.67;;;;;21.55;37.62;101470.87;110190;1265;19474;-51
2022/03/26 09:22:08;;;;;;;;;66.33;49.33;;;;;21.52;37.73;101472.79;110125;1265;18870;-50
2022/03/26 09:24:35;;;;;;;;;62.00;50.00;;;;;21.52;38.09;101471.42;110204;1265;19614;-50
2022/03/26 09:27:03;;;;;;;;;69.00;53.00;;;;;21.50;38.17;101469.44;110160;1265;18681;-51
2022/03/26 09:29:30;;;;;;;;;62.00;50.00;;;;;21.53;38.24;101477.09;110221;1265;22698;-51
2022/03/26 09:31:57;;;;;;;;;55.00;42.00;;;;;21.52;38.52;101478.31;110168;1265;19673;-52
2022/03/26 09:34:24;;;;;;;;;57.33;40.00;;;;;21.54;38.55;101479.63;110189;1264;18712;-53
2022/03/26 09:36:53;;;;;;;;;45.67;38.67;;;;;21.52;38.64;101478.48;110186;1265;18868;-51
2022/03/26 09:39:20;;;;;;;;;43.00;39.00;;;;;21.50;38.20;101478.88;110256;1265;20821;-49
2022/03/26 09:41:47;;;;;;;;;41.50;36.00;;;;;21.48;38.09;101474.89;110214;1265;19037;-52
2022/03/26 09:44:15;;;;;;;;;46.00;37.00;;;;;21.47;38.28;101477.00;110207;1265;19700;-51
2022/03/26 09:46:42;;;;;;;;;43.67;39.33;;;;;21.47;38.17;101478.49;110198;1264;19670;-51
2022/03/26 09:49:10;;;;;;;;;38.33;36.67;;;;;21.45;38.04;101483.80;110186;1265;18766;-50
2022/03/26 09:51:37;;;;;;;;;37.67;33.67;;;;;21.42;38.24;101482.44;110179;1265;18826;-50
2022/03/26 09:54:05;;;;;;;;;39.00;33.00;;;;;21.42;38.25;101486.23;110253;1264;19563;-51
2022/03/26 09:56:32;;;;;;;;;41.00;29.00;;;;;21.40;38.35;101486.09;110205;1264;18891;-53
2022/03/26 09:58:59;;;;;;;;;32.67;29.33;;;;;21.41;38.14;101494.08;110221;1265;19558;-51
2022/03/26 10:01:27;;;;;;;;;33.33;29.00;;;;;21.37;38.22;101490.20;110108;1264;19527;-51
2022/03/26 10:03:54;;;;;;;;;33.33;28.00;;;;;21.36;38.29;101496.92;110169;1265;18841;-53
2022/03/26 10:06:21;;;;;;;;;38.50;29.50;;;;;21.35;38.19;101502.44;110241;1264;19112;-50
2022/03/26 10:08:48;;;;;;;;;32.67;29.00;;;;;21.35;38.10;101497.36;110273;1263;19785;-50
2022/03/26 10:11:16;;;;;;;;;36.33;31.33;;;;;21.35;38.55;101495.52;110228;1265;20259;-52
2022/03/26 10:13:43;;;;;;;;;34.67;29.67;;;;;21.34;38.30;101497.98;110202;1265;20093;-51
2022/03/26 10:16:11;;;;;;;;;31.00;26.00;;;;;21.33;38.08;101499.32;110169;1264;19516;-51
2022/03/26 10:18:38;;;;;;;;;32.00;26.00;;;;;21.32;38.34;101491.65;110124;1265;18809;-50
2022/03/26 10:21:06;;;;;;;;;33.50;32.00;;;;;21.33;38.68;101497.41;110162;1265;18925;-52
2022/03/26 10:23:33;;;;;;;;;34.00;27.33;;;;;21.34;38.63;101502.95;110295;1264;19504;-52
2022/03/26 10:26:00;;;;;;;;;27.50;25.50;;;;;21.33;38.26;101505.41;110244;1265;18694;-50
2022/03/26 10:28:28;;;;;;;;;30.00;26.00;;;;;21.36;38.65;101507.63;110178;1264;20284;-52
2022/03/26 10:33:40;;;;;;;;;26.67;24.33;;;;;21.38;38.58;101507.06;110250;1264;18991;-51
2022/03/26 10:36:07;;;;;;;;;29.67;25.67;;;;;21.41;38.73;101507.69;110150;1265;22719;-53
2022/03/26 10:38:34;;;;;;;;;32.00;27.33;;;;;21.42;38.83;101507.05;110289;1264;19608;-50
2022/03/26 10:41:02;;;;;;;;;30.67;29.67;;;;;21.42;38.95;101505.58;110216;1265;20253;-50
2022/03/26 10:43:29;;;;;;;;;26.67;25.00;;;;;21.45;38.86;101499.62;110150;1264;19022;-51
2022/03/26 10:45:57;;;;;;;;;34.00;31.50;;;;;21.45;39.03;101503.95;110145;1265;19593;-49
2022/03/26 10:48:24;;;;;;;;;33.67;29.67;;;;;21.44;38.91;101500.44;110180;1265;18782;-50
2022/03/26 10:50:51;;;;;;;;;31.33;29.00;;;;;21.41;38.70;101501.95;110127;1265;18887;-52
2022/03/26 10:53:19;;;;;;;;;34.67;28.00;;;;;21.39;38.75;101505.45;110223;1264;20518;-50
2022/03/26 10:55:46;;;;;;;;;32.67;29.33;;;;;21.39;39.04;101512.64;110133;1264;18829;-50
2022/03/26 10:58:13;;;;;;;;;29.00;28.00;;;;;21.38;39.03;101515.64;110169;1264;19133;-50
2022/03/26 11:00:41;;;;;;;;;32.33;28.33;;;;;21.32;39.31;101505.49;110128;1264;19501;-51
2022/03/26 11:03:09;;;;;;;;;32.33;27.67;;;;;21.34;39.38;101511.80;110161;1264;18723;-50
2022/03/26 11:05:36;;;;;;;;;26.00;25.00;;;;;21.39;39.15;101511.64;110194;1265;18790;-52
2022/03/26 11:08:04;;;;;;;;;25.00;23.00;;;;;21.41;39.09;101510.79;110242;1264;19995;-50